Time;durP1;ratioP1;P1;durP2;ratioP2;P2;SDS_P1;SDS_P2;PMS_P1;PMS_P2;Temp;Humidity;BMP_temperature;BMP_pressure;BME280_temperature;BME280_humidity;BME280_pressure;Samples;Min_cycle;Max_cycle;Signal;HPM_P1;HPM_P2
2022/08/13 00:00:32;;;;;;;10.17;9.57;;;;;;;19.07;77.04;92656.66;5030973;28;20236;-70
2022/08/13 00:02:59;;;;;;;10.07;9.47;;;;;;;19.19;76.86;92647.97;5030171;28;20574;-69
2022/08/13 00:05:25;;;;;;;10.57;9.87;;;;;;;19.03;76.78;92631.16;5031056;28;20250;-70
2022/08/13 00:07:50;;;;;;;10.03;9.47;;;;;;;19.09;76.68;92635.16;5030246;28;20293;-70
2022/08/13 00:10:30;;;;;;;10.57;9.87;;;;;;;19.18;75.80;92651.69;5030753;28;20228;-70
2022/08/13 00:13:03;;;;;;;10.40;9.80;;;;;;;19.18;75.79;92651.69;5030404;28;20252;-70
2022/08/13 00:15:35;;;;;;;11.30;10.40;;;;;;;19.21;75.64;92647.63;5027480;28;20250;-70
2022/08/13 00:18:07;;;;;;;10.07;9.47;;;;;;;19.08;75.88;92625.66;5030591;28;20830;-70
2022/08/13 00:20:38;;;;;;;9.67;9.07;;;;;;;19.22;75.81;92634.06;5029742;28;20219;-70
2022/08/13 00:23:07;;;;;;;11.77;10.87;;;;;;;19.18;76.50;92635.81;5029748;28;20196;-70
2022/08/13 00:25:33;;;;;;;10.87;10.17;;;;;;;19.16;76.28;92632.72;5029409;28;20227;-70
2022/08/13 00:28:02;;;;;;;11.07;10.43;;;;;;;19.13;76.87;92636.00;5031266;28;20215;-70
2022/08/13 00:30:31;;;;;;;10.80;10.10;;;;;;;19.15;77.50;92631.19;5030681;28;20296;-70
2022/08/13 00:32:59;;;;;;;11.27;10.57;;;;;;;19.15;78.01;92620.59;5030656;28;20189;-70
2022/08/13 00:35:25;;;;;;;10.43;9.73;;;;;;;19.03;78.29;92624.00;5030121;28;20238;-70
2022/08/13 00:37:50;;;;;;;9.97;9.37;;;;;;;18.99;77.41;92606.44;5031667;28;20212;-69
2022/08/13 00:40:17;;;;;;;10.40;9.80;;;;;;;19.09;76.65;92611.31;5030467;28;20255;-69
2022/08/13 00:42:43;;;;;;;10.40;9.60;;;;;;;19.19;77.28;92632.06;5029438;28;20181;-70
2022/08/13 00:45:09;;;;;;;9.87;9.20;;;;;;;19.11;77.28;92625.00;5029490;28;20256;-69
2022/08/13 00:50:20;;;;;;;10.50;9.90;;;;;;;19.12;77.05;92618.59;5028597;28;20255;-70
2022/08/13 00:52:48;;;;;;;9.73;9.17;;;;;;;18.85;77.77;92595.41;5028935;28;20188;-70
2022/08/13 00:55:17;;;;;;;11.20;10.30;;;;;;;19.10;76.95;92618.94;5030073;28;20211;-70
2022/08/13 00:57:45;;;;;;;10.23;9.57;;;;;;;19.13;76.47;92625.44;5029886;28;20180;-70
2022/08/13 01:00:18;;;;;;;11.07;10.43;;;;;;;18.80;76.76;92585.06;5029962;28;20222;-70
2022/08/13 01:02:47;;;;;;;9.93;9.30;;;;;;;18.82;76.67;92602.16;5030263;28;20223;-70
2022/08/13 01:05:13;;;;;;;10.77;9.97;;;;;;;19.13;76.83;92622.78;5029697;28;20260;-71
2022/08/13 01:07:43;;;;;;;9.80;9.20;;;;;;;19.07;77.26;92624.09;5030506;28;20229;-70
2022/08/13 01:10:10;;;;;;;11.10;10.30;;;;;;;19.08;77.61;92612.44;5029486;28;20249;-70
2022/08/13 01:12:37;;;;;;;10.30;9.50;;;;;;;19.06;77.24;92622.56;5029301;28;20185;-71
2022/08/13 01:15:04;;;;;;;13.20;12.10;;;;;;;18.93;76.92;92618.34;5027289;28;20205;-70
2022/08/13 01:17:31;;;;;;;10.83;10.13;;;;;;;18.89;76.43;92596.31;5030329;28;20185;-70
2022/08/13 01:19:57;;;;;;;11.87;11.07;;;;;;;18.86;76.41;92594.31;5027014;28;20228;-71
2022/08/13 01:22:25;;;;;;;11.53;10.70;;;;;;;19.04;76.47;92619.47;5029884;28;20255;-70
2022/08/13 01:24:51;;;;;;;10.87;10.07;;;;;;;18.87;77.44;92617.81;5029416;28;20230;-71
2022/08/13 01:27:23;;;;;;;11.87;11.07;;;;;;;18.97;77.17;92613.97;5029289;28;20185;-70
2022/08/13 01:29:50;;;;;;;10.60;9.80;;;;;;;18.99;76.39;92617.03;5028631;28;20232;-71
2022/08/13 01:32:16;;;;;;;11.80;10.90;;;;;;;18.82;76.27;92590.78;5029588;28;20192;-70
2022/08/13 01:34:45;;;;;;;10.63;9.93;;;;;;;18.82;77.08;92590.78;5029460;28;20223;-71
2022/08/13 01:37:11;;;;;;;11.63;10.93;;;;;;;18.90;76.97;92605.78;5029124;28;20197;-69
2022/08/13 01:39:38;;;;;;;11.30;10.60;;;;;;;19.01;76.63;92609.56;5032378;28;20236;-70
2022/08/13 01:42:04;;;;;;;10.50;9.80;;;;;;;18.88;76.97;92589.47;5037681;28;20236;-69
2022/08/13 01:44:31;;;;;;;11.67;10.93;;;;;;;18.79;77.19;92570.28;5037564;28;20227;-70
2022/08/13 01:52:34;;;;;;;10.93;10.13;;;;;;;18.99;77.21;92598.50;5034310;28;20257;-69
2022/08/13 01:55:01;;;;;;;12.43;11.60;;;;;;;18.69;77.71;92571.47;5036614;28;20219;-70
2022/08/13 01:57:27;;;;;;;11.43;10.73;;;;;;;18.75;77.31;92572.03;5036625;28;20240;-69
2022/08/13 01:59:53;;;;;;;10.87;10.20;;;;;;;18.80;77.92;92587.72;5038048;28;20233;-70
2022/08/13 02:02:23;;;;;;;10.77;10.03;;;;;;;18.93;78.10;92586.59;5036460;28;20185;-70
2022/08/13 02:04:49;;;;;;;9.87;9.27;;;;;;;19.02;77.11;92592.56;5038391;28;20232;-69
2022/08/13 02:07:15;;;;;;;11.73;10.73;;;;;;;18.84;77.81;92572.72;5033763;28;20230;-70
2022/08/13 02:09:43;;;;;;;10.63;9.83;;;;;;;18.91;77.73;92591.47;5033837;28;20237;-70
2022/08/13 02:12:13;;;;;;;10.70;10.10;;;;;;;18.69;78.01;92566.19;5037908;28;20243;-70
2022/08/13 02:14:42;;;;;;;9.70;9.13;;;;;;;18.65;77.81;92586.47;5038096;28;20267;-70
2022/08/13 02:17:34;;;;;;;10.63;10.03;;;;;;;18.63;76.87;92564.84;5037566;28;20670;-70
2022/08/13 02:19:57;;;;;;;11.00;10.20;;;;;;;18.81;76.95;92587.38;5036815;28;20236;-70
2022/08/13 02:22:24;;;;;;;9.87;9.20;;;;;;;18.85;77.03;92590.91;5034544;28;20181;-70
2022/08/13 02:24:56;;;;;;;10.60;9.90;;;;;;;18.75;77.16;92570.19;5037938;28;20260;-71
2022/08/13 02:27:24;;;;;;;9.70;9.10;;;;;;;18.84;77.30;92591.22;5036213;28;20188;-70
2022/08/13 02:29:52;;;;;;;11.23;10.53;;;;;;;18.73;77.18;92566.31;5039515;28;20261;-70
2022/08/13 02:32:17;;;;;;;10.63;10.03;;;;;;;18.79;77.92;92597.50;5037840;28;20596;-70
2022/08/13 02:34:45;;;;;;;10.37;9.67;;;;;;;18.88;77.49;92590.25;5036940;28;20233;-70
2022/08/13 02:37:11;;;;;;;11.40;10.70;;;;;;;18.93;77.12;92605.13;5035863;28;20181;-70
2022/08/13 02:39:37;;;;;;;10.70;10.05;;;;;;;18.87;77.03;92595.88;5035744;28;20230;-71
2022/08/13 02:42:03;;;;;;;10.20;9.60;;;;;;;18.77;77.36;92577.78;5036079;28;20252;-71
2022/08/13 02:44:29;;;;;;;10.73;9.93;;;;;;;18.88;77.31;92595.53;5038110;28;20247;-70
2022/08/13 02:46:54;;;;;;;11.53;10.73;;;;;;;18.78;77.41;92584.63;5036876;28;22281;-70
2022/08/13 02:49:21;;;;;;;10.37;9.77;;;;;;;18.77;77.62;92583.09;5035813;28;20224;-70
2022/08/13 02:51:49;;;;;;;10.83;10.03;;;;;;;18.81;77.91;92592.66;5038472;28;20221;-70
2022/08/13 02:54:20;;;;;;;10.83;10.13;;;;;;;18.71;78.69;92579.84;5036497;28;20332;-71
2022/08/13 02:56:47;;;;;;;9.47;8.97;;;;;;;18.74;78.71;92584.50;5038341;28;20189;-70
2022/08/13 02:59:13;;;;;;;10.70;10.00;;;;;;;18.63;78.80;92572.03;5036917;28;20224;-70
2022/08/13 03:01:39;;;;;;;10.50;9.80;;;;;;;18.79;78.95;92596.72;5037409;28;20260;-71
2022/08/13 03:04:08;;;;;;;11.00;10.10;;;;;;;18.76;79.06;92586.81;5035476;28;20246;-69
2022/08/13 03:06:34;;;;;;;11.53;10.73;;;;;;;18.72;78.79;92584.03;5039420;28;20236;-70
2022/08/13 03:09:01;;;;;;;10.03;9.43;;;;;;;18.73;78.94;92588.25;5037681;28;20246;-70
2022/08/13 03:11:28;;;;;;;10.17;9.57;;;;;;;18.70;78.85;92585.47;5039733;28;21033;-70
2022/08/13 03:14:01;;;;;;;10.90;10.07;;;;;;;18.68;78.90;92596.38;5041862;28;20240;-70
2022/08/13 03:16:27;;;;;;;11.33;10.40;;;;;;;18.72;78.11;92596.50;5040727;28;20179;-70
2022/08/13 03:18:54;;;;;;;10.17;9.57;;;;;;;18.68;78.31;92592.97;5060495;28;20236;-70
2022/08/13 03:21:26;;;;;;;11.47;10.77;;;;;;;18.66;79.29;92592.53;5039851;28;20872;-69
2022/08/13 03:23:52;;;;;;;10.47;9.57;;;;;;;18.51;78.85;92574.63;5039176;28;20234;-69
2022/08/13 03:26:20;;;;;;;10.40;9.70;;;;;;;18.56;79.04;92579.72;5040723;28;20190;-70
2022/08/13 03:28:46;;;;;;;10.70;9.90;;;;;;;18.47;78.91;92544.69;5040755;28;20273;-70
2022/08/13 03:31:12;;;;;;;9.63;9.03;;;;;;;18.75;78.93;92595.84;5040524;28;20215;-69
2022/08/13 03:33:38;;;;;;;10.90;10.10;;;;;;;18.74;78.96;92584.50;5036907;28;20228;-69
2022/08/13 03:36:04;;;;;;;10.37;9.67;;;;;;;18.74;78.91;92605.66;5039047;28;20200;-70
2022/08/13 03:38:29;;;;;;;9.87;9.17;;;;;;;18.67;77.72;92596.72;5041847;28;20177;-72
2022/08/13 03:41:01;;;;;;;11.27;10.30;;;;;;;18.56;79.19;92601.66;5041748;28;20193;-70
2022/08/13 03:43:27;;;;;;;10.73;9.90;;;;;;;18.53;79.45;92596.25;5040370;28;20243;-71
2022/08/13 03:45:54;;;;;;;10.80;9.90;;;;;;;18.60;79.38;92599.13;5038438;28;20188;-70
2022/08/13 03:48:21;;;;;;;9.87;9.27;;;;;;;18.63;78.93;92606.41;5041957;28;20197;-70
2022/08/13 03:50:48;;;;;;;11.50;10.73;;;;;;;18.54;78.88;92592.50;5039943;28;20227;-70
2022/08/13 03:53:15;;;;;;;10.47;9.33;;;;;;;18.52;80.65;92600.00;5040706;28;20197;-69
2022/08/13 03:55:42;;;;;;;10.33;9.67;;;;;;;18.70;80.11;92614.56;5042276;28;20213;-70
2022/08/13 03:58:08;;;;;;;10.70;10.00;;;;;;;18.62;79.76;92592.41;5038349;28;20230;-69
2022/08/13 04:00:39;;;;;;;11.83;10.93;;;;;;;18.75;79.90;92606.44;5038491;28;20231;-69
2022/08/13 04:03:16;;;;;;;10.90;10.17;;;;;;;18.70;80.53;92604.00;5041003;28;20201;-70
2022/08/13 04:05:42;;;;;;;11.37;10.27;;;;;;;18.64;80.28;92589.44;5040324;28;20238;-71
2022/08/13 04:08:07;;;;;;;10.90;10.07;;;;;;;18.68;80.04;92595.59;5042946;28;20977;-71
2022/08/13 04:10:33;;;;;;;10.37;9.63;;;;;;;18.50;79.91;92565.16;5037694;28;20305;-70
2022/08/13 04:12:59;;;;;;;10.60;9.93;;;;;;;18.79;79.67;92596.72;5040950;28;20194;-70
2022/08/13 04:15:24;;;;;;;10.07;9.47;;;;;;;18.93;79.31;92602.47;5037599;28;20216;-70
2022/08/13 04:17:50;;;;;;;9.27;8.77;;;;;;;18.92;79.33;92598.31;5040130;28;20186;-70
2022/08/13 04:20:15;;;;;;;10.53;9.93;;;;;;;18.94;79.86;92604.03;5035559;28;20225;-70
2022/08/13 04:22:40;;;;;;;10.63;9.93;;;;;;;18.98;80.42;92607.56;5042460;28;20185;-71
2022/08/13 04:25:07;;;;;;;11.60;10.90;;;;;;;19.05;80.11;92608.56;5037636;28;20359;-69
2022/08/13 04:27:34;;;;;;;11.63;10.80;;;;;;;18.93;80.27;92587.38;5038337;28;20252;-70
2022/08/13 04:30:02;;;;;;;11.47;10.47;;;;;;;19.08;80.61;92615.09;5040987;28;20253;-70
2022/08/13 04:32:28;;;;;;;12.03;11.03;;;;;;;19.04;80.24;92590.38;5041213;28;20193;-70
2022/08/13 04:34:54;;;;;;;11.37;10.40;;;;;;;19.01;78.99;92598.97;5037890;28;20236;-70
2022/08/13 04:37:22;;;;;;;12.63;11.57;;;;;;;19.21;79.83;92613.97;5039632;28;20185;-70
2022/08/13 04:39:52;;;;;;;11.00;10.20;;;;;;;19.05;80.44;92591.94;5038357;28;20287;-70
2022/08/13 04:42:18;;;;;;;11.53;10.83;;;;;;;19.29;80.50;92607.81;5039998;28;20204;-70
2022/08/13 04:44:43;;;;;;;10.30;9.52;;;;;;;19.31;81.05;92597.69;5037792;28;20237;-70
2022/08/13 04:47:08;;;;;;;11.27;10.57;;;;;;;19.38;80.80;92603.19;5038375;28;20253;-71
2022/08/13 04:49:34;;;;;;;11.65;10.65;;;;;;;19.09;80.48;92547.81;5038211;28;20228;-70
2022/08/13 04:51:59;;;;;;;13.37;12.27;;;;;;;19.24;79.06;92584.19;5035914;28;20310;-69
2022/08/13 04:54:25;;;;;;;12.33;11.37;;;;;;;19.34;77.95;92591.72;5038826;28;20289;-70
2022/08/13 04:56:50;;;;;;;13.60;12.20;;;;;;;19.39;77.27;92603.97;5038525;28;20188;-71
2022/08/13 04:59:15;;;;;;;13.37;12.27;;;;;;;19.42;78.13;92605.94;5037305;28;20236;-69
2022/08/13 05:01:41;;;;;;;11.90;11.00;;;;;;;19.57;76.59;92607.91;5041177;28;20249;-70
2022/08/13 05:04:06;;;;;;;13.53;12.53;;;;;;;19.57;75.08;92592.81;5040142;28;20232;-70
2022/08/13 05:06:32;;;;;;;12.33;11.33;;;;;;;19.26;79.05;92563.47;5040049;28;20233;-70
2022/08/13 05:09:03;;;;;;;13.63;12.37;;;;;;;19.58;77.43;92596.22;5040566;28;20232;-71
2022/08/13 05:11:29;;;;;;;12.23;11.13;;;;;;;19.44;76.69;92601.84;5039906;28;20236;-70
2022/08/13 05:13:54;;;;;;;11.83;10.93;;;;;;;19.58;77.05;92596.22;5038849;28;20705;-70
2022/08/13 05:16:20;;;;;;;13.17;12.00;;;;;;;19.66;75.76;92604.03;5039313;28;20189;-70
2022/08/13 05:18:56;;;;;;;12.63;11.73;;;;;;;19.62;76.50;92602.41;5038781;28;20225;-70
2022/08/13 05:21:23;;;;;;;13.23;12.13;;;;;;;19.69;76.31;92605.25;5038281;28;20179;-70
2022/08/13 05:23:53;;;;;;;14.30;13.00;;;;;;;19.71;76.30;92611.75;5038750;28;20256;-70
2022/08/13 05:26:21;;;;;;;13.87;12.77;;;;;;;19.73;76.70;92609.56;5040771;28;20248;-71
2022/08/13 05:28:47;;;;;;;13.50;12.20;;;;;;;19.74;76.49;92608.44;5037174;28;20932;-70
2022/08/13 05:31:12;;;;;;;13.80;12.70;;;;;;;19.83;76.41;92609.09;5038775;28;20217;-70
2022/08/13 05:33:38;;;;;;;13.73;12.43;;;;;;;19.91;76.75;92604.75;5038771;28;20182;-71
2022/08/13 05:36:04;;;;;;;13.63;12.53;;;;;;;19.94;77.23;92610.16;5039297;28;20200;-70
2022/08/13 05:38:31;;;;;;;13.88;12.77;;;;;;;19.80;76.30;92567.34;5036910;28;20201;-72
2022/08/13 05:41:04;;;;;;;14.37;13.27;;;;;;;20.11;75.73;92617.09;5036085;28;20197;-70
2022/08/13 05:43:33;;;;;;;13.88;12.80;;;;;;;20.19;74.72;92614.31;5037029;28;20256;-70
2022/08/13 05:46:02;;;;;;;13.60;12.37;;;;;;;20.12;74.67;92615.97;5038466;28;20191;-69
2022/08/13 05:48:37;;;;;;;14.00;12.93;;;;;;;20.01;75.66;92615.69;5038466;28;20178;-70
2022/08/13 05:51:07;;;;;;;13.43;12.23;;;;;;;20.08;73.85;92621.16;5038004;28;20217;-70
2022/08/13 05:53:33;;;;;;;13.23;11.90;;;;;;;19.91;75.12;92618.00;5036864;28;20193;-70
2022/08/13 05:55:59;;;;;;;15.20;13.88;;;;;;;19.74;75.23;92615.59;5036652;28;20255;-71
2022/08/13 05:58:24;;;;;;;13.98;12.63;;;;;;;19.96;74.59;92618.56;5038720;28;20172;-72
2022/08/13 06:03:35;;;;;;;15.23;13.13;;;;;;;20.10;74.47;92613.66;5035724;28;20197;-70
2022/08/13 06:06:05;;;;;;;14.47;13.37;;;;;;;20.04;73.91;92619.53;5039129;28;20197;-70
2022/08/13 06:08:35;;;;;;;14.73;13.32;;;;;;;20.15;73.69;92612.69;5035059;28;20192;-69
2022/08/13 06:11:16;;;;;;;15.43;14.13;;;;;;;20.19;72.60;92593.09;5038157;28;20216;-70
2022/08/13 06:13:43;;;;;;;15.57;14.48;;;;;;;20.40;71.61;92612.25;5036395;28;20252;-70
2022/08/13 06:16:11;;;;;;;15.00;13.70;;;;;;;20.46;72.35;92610.91;5039364;28;20190;-70
2022/08/13 06:18:40;;;;;;;14.98;13.68;;;;;;;20.34;72.79;92608.28;5035654;28;20215;-70
2022/08/13 06:21:08;;;;;;;13.70;12.38;;;;;;;20.28;74.58;92611.53;5037122;28;20190;-69
2022/08/13 06:23:35;;;;;;;15.80;14.52;;;;;;;20.20;72.95;92613.19;5036409;28;20206;-70
2022/08/13 06:26:02;;;;;;;15.52;14.13;;;;;;;20.28;72.84;92620.25;5034758;28;20190;-70
2022/08/13 06:28:30;;;;;;;16.23;13.93;;;;;;;20.49;72.23;92622.72;5037863;28;20190;-70
2022/08/13 06:31:01;;;;;;;14.68;13.30;;;;;;;20.38;73.17;92619.78;5036132;28;20222;-70
2022/08/13 06:33:29;;;;;;;16.48;13.50;;;;;;;20.32;73.80;92621.13;5037177;28;20185;-71
2022/08/13 06:36:04;;;;;;;16.65;14.90;;;;;;;20.54;71.43;92602.03;5040025;28;20181;-70
2022/08/13 06:38:41;;;;;;;19.42;14.90;;;;;;;20.48;71.90;92592.75;5036879;28;20221;-70
2022/08/13 06:41:08;;;;;;;16.40;13.52;;;;;;;20.81;70.88;92616.34;5039381;28;20213;-70
2022/08/13 06:43:42;;;;;;;15.13;13.73;;;;;;;21.01;70.43;92619.91;5039581;28;20978;-70
2022/08/13 06:46:09;;;;;;;14.70;13.27;;;;;;;21.00;69.66;92605.88;5039542;28;20217;-70
2022/08/13 06:48:35;;;;;;;15.93;14.43;;;;;;;20.83;70.08;92616.00;5041312;28;20866;-71
2022/08/13 06:51:06;;;;;;;15.52;13.98;;;;;;;21.09;68.60;92624.28;5042165;28;20257;-70
2022/08/13 06:53:35;;;;;;;15.48;14.18;;;;;;;21.47;67.74;92617.25;5041991;28;20224;-69
2022/08/13 06:56:04;;;;;;;15.23;13.73;;;;;;;21.48;67.90;92613.47;5039358;28;20210;-68
2022/08/13 06:58:30;;;;;;;13.60;12.50;;;;;;;21.70;67.58;92622.69;5041316;28;20201;-69
2022/08/13 07:00:56;;;;;;;15.25;13.80;;;;;;;21.82;65.97;92617.31;5042456;28;20317;-69
2022/08/13 07:03:28;;;;;;;13.98;12.77;;;;;;;22.27;62.85;92614.06;5039113;28;20178;-71
2022/08/13 07:05:56;;;;;;;13.93;12.82;;;;;;;22.29;63.14;92622.47;5038515;28;20244;-70
2022/08/13 07:08:24;;;;;;;12.38;11.40;;;;;;;22.37;62.77;92622.25;5040449;28;20998;-70
2022/08/13 07:11:21;;;;;;;14.20;13.05;;;;;;;22.46;63.38;92622.81;5042013;28;20227;-70
2022/08/13 07:13:39;;;;;;;15.25;13.75;;;;;;;22.38;63.31;92629.13;5038352;28;20233;-69
2022/08/13 07:16:09;;;;;;;14.20;13.10;;;;;;;22.13;63.85;92612.66;5042140;28;20211;-69
2022/08/13 07:18:36;;;;;;;14.18;13.02;;;;;;;22.24;64.09;92631.50;5039547;28;20192;-70
2022/08/13 07:21:09;;;;;;;13.65;12.50;;;;;;;21.97;66.12;92635.88;5041423;28;20203;-69
2022/08/13 07:23:36;;;;;;;14.07;12.85;;;;;;;22.23;65.12;92630.72;5038238;28;20184;-71
2022/08/13 07:26:02;;;;;;;15.38;13.93;;;;;;;22.33;64.37;92637.38;5042095;28;20196;-70
2022/08/13 07:28:30;;;;;;;14.60;13.48;;;;;;;22.44;64.13;92622.41;5038021;28;20205;-70
2022/08/13 07:30:56;;;;;;;15.65;14.23;;;;;;;22.35;63.88;92639.69;5038137;28;20293;-70
2022/08/13 07:33:22;;;;;;;15.40;13.85;;;;;;;22.59;63.06;92621.56;5040919;28;20193;-70
2022/08/13 07:35:48;;;;;;;15.20;14.00;;;;;;;22.14;64.49;92632.03;5041932;28;20184;-71
2022/08/13 07:38:15;;;;;;;14.35;12.95;;;;;;;22.51;63.23;92632.38;5039064;28;20258;-69
2022/08/13 07:40:41;;;;;;;14.45;13.05;;;;;;;22.72;62.52;92630.97;5039728;28;20248;-69
2022/08/13 07:43:09;;;;;;;14.90;13.43;;;;;;;21.96;65.36;92628.25;5037837;28;20189;-69
2022/08/13 07:45:35;;;;;;;14.35;12.93;;;;;;;22.42;64.33;92632.63;5041346;28;20228;-70
2022/08/13 07:48:02;;;;;;;13.95;12.85;;;;;;;22.81;62.57;92614.75;5039675;28;20204;-69
2022/08/13 07:50:29;;;;;;;14.80;13.30;;;;;;;22.56;64.19;92624.94;5038193;28;20252;-70
2022/08/13 07:52:57;;;;;;;13.65;12.45;;;;;;;23.07;61.24;92628.91;5037931;28;20207;-70
2022/08/13 07:55:25;;;;;;;14.65;13.15;;;;;;;23.29;61.26;92624.75;5042235;28;21031;-70
2022/08/13 07:57:51;;;;;;;15.38;13.85;;;;;;;23.42;60.40;92624.22;5039114;28;20200;-70
2022/08/13 08:00:25;;;;;;;15.77;14.30;;;;;;;22.86;62.00;92628.56;5039962;28;20228;-69
2022/08/13 08:03:02;;;;;;;14.73;13.27;;;;;;;23.19;62.03;92631.41;5039709;28;20282;-69
2022/08/13 08:05:33;;;;;;;15.43;14.00;;;;;;;23.35;62.36;92629.41;5037380;28;20217;-70
2022/08/13 08:08:00;;;;;;;16.13;14.70;;;;;;;22.52;62.51;92620.66;5038197;28;20257;-70
2022/08/13 08:10:26;;;;;;;16.52;14.93;;;;;;;22.56;63.33;92614.28;5041356;28;20219;-69
2022/08/13 08:12:59;;;;;;;14.57;13.27;;;;;;;23.41;61.49;92617.34;5041074;28;20240;-71
2022/08/13 08:15:25;;;;;;;14.82;13.63;;;;;;;23.38;60.78;92628.72;5038229;28;20230;-73
2022/08/13 08:17:50;;;;;;;14.85;13.43;;;;;;;23.60;59.89;92611.94;5039406;28;20203;-70
2022/08/13 08:20:21;;;;;;;14.93;13.52;;;;;;;23.29;60.32;92625.53;5038483;28;20747;-70
2022/08/13 08:22:49;;;;;;;14.52;13.13;;;;;;;22.27;64.47;92612.94;5041185;28;20190;-70
2022/08/13 08:25:17;;;;;;;15.20;13.80;;;;;;;23.17;61.67;92620.34;5038471;28;20225;-69
2022/08/13 08:27:43;;;;;;;15.45;14.05;;;;;;;23.32;61.39;92624.81;5040430;28;20193;-70
2022/08/13 08:30:09;;;;;;;14.90;13.10;;;;;;;23.08;62.48;92627.03;5039087;28;20213;-70
2022/08/13 08:32:36;;;;;;;14.63;13.27;;;;;;;23.36;62.07;92622.22;5039151;28;20249;-69
2022/08/13 08:35:02;;;;;;;14.95;13.55;;;;;;;23.01;62.50;92619.69;5039381;28;20255;-69
2022/08/13 08:43:00;;;;;;;15.00;13.68;;;;;;;23.47;61.68;92610.56;5040107;28;20260;-69
2022/08/13 08:45:26;;;;;;;15.70;14.20;;;;;;;23.69;59.88;92617.75;5040370;28;20221;-70
2022/08/13 08:47:52;;;;;;;14.60;13.13;;;;;;;23.27;61.25;92601.13;5040469;28;20204;-69
2022/08/13 08:50:22;;;;;;;13.48;12.20;;;;;;;23.08;62.72;92609.13;5038726;28;20240;-70
2022/08/13 08:55:36;;;;;;;14.68;13.32;;;;;;;22.70;63.23;92603.91;5037097;28;20312;-70
2022/08/13 08:58:07;;;;;;;15.68;13.27;;;;;;;22.97;63.16;92612.75;5037790;28;20223;-69
2022/08/13 09:00:35;;;;;;;15.30;13.70;;;;;;;22.89;63.04;92611.88;5040425;28;20282;-70
2022/08/13 09:03:01;;;;;;;13.50;12.20;;;;;;;22.60;63.79;92615.13;5037466;28;20212;-69
2022/08/13 09:05:27;;;;;;;14.32;13.02;;;;;;;22.77;63.93;92608.59;5037230;28;20229;-70
2022/08/13 09:07:52;;;;;;;14.68;13.18;;;;;;;22.56;64.12;92608.19;5039485;28;20236;-69
2022/08/13 09:10:21;;;;;;;14.82;13.52;;;;;;;22.76;63.62;92605.16;5037067;28;20285;-71
2022/08/13 09:12:50;;;;;;;15.35;13.85;;;;;;;22.68;64.32;92605.41;5039520;28;20196;-70
2022/08/13 09:15:17;;;;;;;15.52;14.05;;;;;;;22.73;62.92;92573.16;5037718;28;20231;-71
2022/08/13 09:17:45;;;;;;;15.48;14.07;;;;;;;23.07;62.23;92604.16;5039134;28;20280;-70
2022/08/13 09:20:15;;;;;;;15.00;13.48;;;;;;;22.75;64.40;92606.28;5036541;28;20251;-68
2022/08/13 09:22:44;;;;;;;15.32;13.90;;;;;;;22.15;66.13;92610.41;5040909;28;20214;-67
2022/08/13 09:25:13;;;;;;;14.88;13.48;;;;;;;22.46;64.50;92609.50;5040096;28;20221;-68
2022/08/13 09:27:43;;;;;;;15.27;13.98;;;;;;;22.86;64.72;92604.59;5042149;28;20220;-67
2022/08/13 09:30:10;;;;;;;15.25;14.05;;;;;;;22.32;66.18;92617.19;5037049;28;20211;-67
2022/08/13 09:32:36;;;;;;;15.50;14.10;;;;;;;22.55;65.62;92604.78;5038768;28;20204;-68
2022/08/13 09:35:04;;;;;;;15.98;14.57;;;;;;;22.31;66.50;92613.00;5039984;28;20249;-68
2022/08/13 09:37:31;;;;;;;16.35;14.60;;;;;;;22.45;66.82;92615.16;5039855;28;20197;-69
2022/08/13 09:40:05;;;;;;;15.15;13.82;;;;;;;21.84;68.05;92609.72;5036294;28;20223;-73
2022/08/13 09:42:46;;;;;;;16.88;15.25;;;;;;;22.15;68.13;92610.41;5040553;28;20257;-69
2022/08/13 09:45:11;;;;;;;15.25;13.80;;;;;;;22.10;68.39;92596.63;5034432;28;20230;-78
2022/08/13 09:47:36;;;;;;;16.92;15.32;;;;;;;22.05;68.58;92612.88;5039444;28;20189;-68
2022/08/13 09:50:03;;;;;;;17.38;15.55;;;;;;;22.16;67.75;92606.63;5037616;28;20232;-69
2022/08/13 09:52:28;;;;;;;19.33;15.50;;;;;;;22.06;68.84;92604.53;5038598;28;20193;-69
2022/08/13 09:54:57;;;;;;;16.42;14.90;;;;;;;21.88;69.77;92600.72;5037696;28;20295;-68
2022/08/13 09:57:24;;;;;;;20.90;18.60;;;;;;;21.94;69.53;92604.66;5035383;28;20221;-68
2022/08/13 09:59:50;;;;;;;17.95;16.25;;;;;;;21.80;70.83;92607.03;5037004;28;20232;-68
2022/08/13 10:02:15;;;;;;;18.23;16.27;;;;;;;21.62;71.84;92602.41;5037689;28;20189;-68
2022/08/13 10:04:42;;;;;;;17.38;15.80;;;;;;;21.47;73.79;92605.84;5036853;28;20762;-72
2022/08/13 10:07:08;;;;;;;17.95;16.15;;;;;;;21.48;74.91;92618.03;5036043;28;20915;-71
2022/08/13 10:09:36;;;;;;;19.63;17.33;;;;;;;20.99;79.69;92614.16;5038834;28;20302;-70
2022/08/13 10:12:03;;;;;;;20.63;17.27;;;;;;;20.48;89.10;92603.34;5037587;28;20309;-70
2022/08/13 10:14:29;;;;;;;22.33;18.08;;;;;;;20.02;92.50;92601.31;5039413;28;20228;-71
2022/08/13 10:16:54;;;;;;;19.98;17.85;;;;;;;19.57;94.95;92595.44;5046410;28;20258;-71
2022/08/13 10:19:20;;;;;;;23.17;18.33;;;;;;;19.98;97.10;92595.16;5047643;28;20232;-71
2022/08/13 10:21:46;;;;;;;20.67;18.05;;;;;;;19.82;98.68;92590.88;5044434;28;20186;-70
2022/08/13 10:24:11;;;;;;;20.43;18.30;;;;;;;20.03;95.16;92597.53;5045584;28;20228;-72
2022/08/13 10:26:40;;;;;;;20.27;17.35;;;;;;;19.99;98.04;92596.69;5042280;28;20263;-71
2022/08/13 10:29:08;;;;;;;18.40;16.60;;;;;;;20.17;96.07;92592.66;5043929;28;20229;-71
2022/08/13 10:31:34;;;;;;;20.35;16.48;;;;;;;20.40;94.10;92591.03;5043067;28;20238;-71
2022/08/13 10:33:59;;;;;;;18.23;16.47;;;;;;;20.62;95.12;92592.38;5042568;28;20227;-71
2022/08/13 10:36:26;;;;;;;17.67;16.00;;;;;;;20.30;95.25;92586.22;5045160;28;20181;-71
2022/08/13 10:38:51;;;;;;;16.88;15.15;;;;;;;20.59;94.61;92588.50;5045390;28;20259;-70
2022/08/13 10:41:17;;;;;;;18.63;16.80;;;;;;;20.75;92.99;92577.91;5041050;28;20181;-71
2022/08/13 10:43:42;;;;;;;16.42;14.85;;;;;;;20.97;92.02;92597.81;5043279;28;20229;-71
2022/08/13 10:46:11;;;;;;;16.63;14.95;;;;;;;21.30;90.05;92587.63;5044106;28;20189;-71
2022/08/13 10:48:40;;;;;;;17.30;15.60;;;;;;;21.39;89.69;92594.28;5044051;28;20176;-71
2022/08/13 10:51:06;;;;;;;15.02;12.93;;;;;;;21.75;88.26;92593.22;5042698;28;20247;-70
2022/08/13 10:56:17;;;;;;;15.45;14.13;;;;;;;22.06;85.22;92593.13;5043412;28;20190;-71
2022/08/13 10:58:43;;;;;;;15.35;13.13;;;;;;;21.92;86.22;92590.94;5040450;28;20238;-71
2022/08/13 11:01:10;;;;;;;15.25;13.82;;;;;;;21.29;88.42;92596.69;5046906;28;20207;-72
2022/08/13 11:03:36;;;;;;;16.58;14.98;;;;;;;21.10;90.59;92601.94;5046425;28;20200;-71
2022/08/13 11:06:05;;;;;;;16.60;15.20;;;;;;;20.90;92.58;92601.06;5040757;28;21388;-71
2022/08/13 11:08:34;;;;;;;16.25;14.73;;;;;;;21.09;92.36;92603.06;5042788;28;20188;-72
2022/08/13 11:11:00;;;;;;;17.60;16.10;;;;;;;21.07;91.75;92586.69;5045809;28;20261;-71
2022/08/13 11:13:25;;;;;;;17.23;15.63;;;;;;;21.18;90.75;92590.38;5044034;28;20199;-73
2022/08/13 11:15:51;;;;;;;17.02;15.55;;;;;;;21.15;90.38;92583.09;5045855;28;20201;-70
2022/08/13 11:18:18;;;;;;;17.45;15.70;;;;;;;21.03;90.70;92586.59;5043277;28;21153;-71
2022/08/13 11:21:07;;;;;;;16.77;15.30;;;;;;;21.35;89.95;92574.84;5041866;28;20216;-71
2022/08/13 11:23:29;;;;;;;16.00;14.63;;;;;;;21.60;90.32;92570.88;5043688;28;20185;-71
2022/08/13 11:25:56;;;;;;;17.63;16.02;;;;;;;21.62;89.63;92565.97;5044246;28;20259;-71
2022/08/13 11:28:21;;;;;;;17.83;16.27;;;;;;;21.75;89.43;92563.97;5044461;28;20188;-71
2022/08/13 11:30:49;;;;;;;18.08;16.33;;;;;;;21.73;89.67;92566.19;5039506;28;20247;-72
2022/08/13 11:33:14;;;;;;;18.02;16.27;;;;;;;21.81;88.71;92554.63;5038760;28;20176;-70
2022/08/13 11:35:44;;;;;;;17.02;15.43;;;;;;;22.01;87.72;92567.56;5041134;28;20242;-70
2022/08/13 11:38:12;;;;;;;16.77;15.25;;;;;;;22.03;87.25;92570.66;5042588;28;20191;-71
2022/08/13 11:40:39;;;;;;;16.95;15.45;;;;;;;21.91;86.27;92576.13;5040094;28;20224;-71
2022/08/13 11:43:05;;;;;;;17.92;16.33;;;;;;;21.85;86.31;92561.53;5037816;28;20193;-71